Time;durP1;ratioP1;P1;durP2;ratioP2;P2;SDS_P1;SDS_P2;PMS_P1;PMS_P2;Temp;Humidity;BMP_temperature;BMP_pressure;BME280_temperature;BME280_humidity;BME280_pressure;Samples;Min_cycle;Max_cycle;Signal;HPM_P1;HPM_P2
2022/01/16 00:00:40;;;;;;;137.83;50.00;;;;;;;;;;5029316;28;20300;-70
2022/01/16 00:05:55;;;;;;;156.83;51.47;;;;;;;;;;5026184;28;20445;-71
2022/01/16 00:08:21;;;;;;;154.40;51.60;;;;;;;;;;5030908;28;20323;-70
2022/01/16 00:10:47;;;;;;;160.70;47.73;;;;;;;;;;5030101;28;20323;-71
2022/01/16 00:13:13;;;;;;;138.57;43.47;;;;;;;;;;5030775;28;20361;-71
2022/01/16 00:15:39;;;;;;;118.37;41.93;;;;;;;;;;5030569;28;20296;-71
2022/01/16 00:20:32;;;;;;;121.13;42.53;;;;;;;;;;5029610;28;20697;-70
2022/01/16 00:22:59;;;;;;;127.33;41.90;;;;;;;;;;5030718;28;20045;-70
2022/01/16 00:25:25;;;;;;;123.93;44.43;;;;;;;;;;5029087;28;20806;-70
2022/01/16 00:27:51;;;;;;;112.43;39.33;;;;;;;;;;5030069;28;20292;-70
2022/01/16 00:30:18;;;;;;;118.60;42.60;;;;;;;;;;5029429;28;20288;-70
2022/01/16 00:32:44;;;;;;;129.27;41.53;;;;;;;;;;5029238;28;20308;-70
2022/01/16 00:35:11;;;;;;;111.47;37.70;;;;;;;;;;5030744;28;20099;-70
2022/01/16 00:37:38;;;;;;;136.53;43.40;;;;;;;;;;5029724;28;20794;-71
2022/01/16 00:40:05;;;;;;;122.73;41.27;;;;;;;;;;5028752;28;20296;-70
2022/01/16 00:42:31;;;;;;;151.93;42.27;;;;;;;;;;5029884;28;20306;-71
2022/01/16 00:44:57;;;;;;;157.97;46.93;;;;;;;;;;5030188;28;20367;-71
2022/01/16 00:47:23;;;;;;;160.57;48.27;;;;;;;;;;5029934;28;20363;-70
2022/01/16 00:49:49;;;;;;;180.10;49.53;;;;;;;;;;5029412;28;20041;-71
2022/01/16 00:52:15;;;;;;;180.33;50.43;;;;;;;;;;5028501;28;20053;-71
2022/01/16 00:54:41;;;;;;;178.60;49.07;;;;;;;;;;5028868;28;20072;-71
2022/01/16 00:57:07;;;;;;;179.37;51.47;;;;;;;;;;5028778;28;20296;-70
2022/01/16 00:59:33;;;;;;;176.87;49.33;;;;;;;;;;5028362;28;20296;-70
2022/01/16 01:02:00;;;;;;;175.77;50.13;;;;;;;;;;5028886;28;20288;-71
2022/01/16 01:04:26;;;;;;;203.47;54.77;;;;;;;;;;5030188;28;20120;-71
2022/01/16 01:06:53;;;;;;;196.20;54.10;;;;;;;;;;5028928;28;20292;-71
2022/01/16 01:09:19;;;;;;;220.50;54.63;;;;;;;;;;5011855;28;20048;-71
2022/01/16 01:11:49;;;;;;;208.90;57.50;;;;;;;;;;5028258;28;20881;-71
2022/01/16 01:14:39;;;;;;;214.20;57.93;;;;;;;;;;5028316;28;20390;-70
2022/01/16 01:17:08;;;;;;;229.20;59.57;;;;;;;;;;5027411;28;20296;-70
2022/01/16 01:19:35;;;;;;;229.23;59.60;;;;;;;;;;5028204;28;20694;-71
2022/01/16 01:22:04;;;;;;;215.20;58.77;;;;;;;;;;5028439;28;20053;-71
2022/01/16 01:24:31;;;;;;;236.70;60.43;;;;;;;;;;5028644;28;20708;-71
2022/01/16 01:29:30;;;;;;;263.63;64.07;;;;;;;;;;5027853;28;20064;-70
2022/01/16 01:31:56;;;;;;;258.60;65.00;;;;;;;;;;5029389;28;20284;-70
2022/01/16 01:34:22;;;;;;;269.23;67.13;;;;;;;;;;5027878;28;20932;-70
2022/01/16 01:36:49;;;;;;;296.40;68.57;;;;;;;;;;5028585;28;20295;-70
2022/01/16 01:39:22;;;;;;;288.07;69.17;;;;;;;;;;5029391;28;20053;-70
2022/01/16 01:41:51;;;;;;;284.13;69.57;;;;;;;;;;5028894;28;20359;-70
2022/01/16 01:52:32;;;;;;;259.77;62.27;;;;;;;;;;5028561;28;20669;-70
2022/01/16 01:54:58;;;;;;;250.33;59.70;;;;;;;;;;5027883;28;21217;-71
2022/01/16 01:57:24;;;;;;;336.73;71.10;;;;;;;;;;5027985;28;20331;-70
2022/01/16 01:59:50;;;;;;;411.53;80.57;;;;;;;;;;5028268;28;20292;-70
2022/01/16 02:02:16;;;;;;;419.83;84.07;;;;;;;;;;5027874;28;20342;-70
2022/01/16 02:04:42;;;;;;;376.57;77.33;;;;;;;;;;5028888;28;20283;-71
2022/01/16 02:07:08;;;;;;;345.27;73.83;;;;;;;;;;5029149;28;20049;-70
2022/01/16 02:09:34;;;;;;;374.13;75.27;;;;;;;;;;5027489;28;20693;-71
2022/01/16 02:12:01;;;;;;;424.97;81.40;;;;;;;;;;5027672;28;20049;-70
2022/01/16 02:14:49;;;;;;;450.30;82.70;;;;;;;;;;5027625;28;20049;-70
2022/01/16 02:36:29;;;;;;;444.17;84.47;;;;;;;;;;5012799;28;20819;-70
2022/01/16 02:39:15;;;;;;;438.50;83.77;;;;;;;;;;5011740;28;20049;-71
2022/01/16 02:41:42;;;;;;;429.50;81.43;;;;;;;;;;5011529;28;20292;-70
2022/01/16 02:46:45;;;;;;;399.03;85.37;;;;;;;;;;5011295;28;20296;-70
2022/01/16 02:49:20;;;;;;;402.80;78.00;;;;;;;;;;5021286;28;20136;-71
2022/01/16 02:51:47;;;;;;;366.13;72.83;;;;;;;;;;5030880;28;20382;-70
2022/01/16 02:54:13;;;;;;;392.07;79.37;;;;;;;;;;5030351;28;20057;-70
2022/01/16 02:56:40;;;;;;;375.60;78.07;;;;;;;;;;5032331;28;20045;-70
2022/01/16 02:59:07;;;;;;;376.70;74.03;;;;;;;;;;5030317;28;20296;-71
2022/01/16 03:01:34;;;;;;;384.67;73.90;;;;;;;;;;5032179;28;20057;-71
2022/01/16 03:04:01;;;;;;;341.97;72.57;;;;;;;;;;5030634;28;20939;-71
2022/01/16 03:06:28;;;;;;;344.83;75.13;;;;;;;;;;5032173;28;20308;-70
2022/01/16 03:08:54;;;;;;;333.80;69.40;;;;;;;;;;5032216;28;20151;-71
2022/01/16 03:13:48;;;;;;;347.23;70.27;;;;;;;;;;5031668;28;20113;-71
2022/01/16 03:16:18;;;;;;;355.23;75.17;;;;;;;;;;5030773;28;21111;-71
2022/01/16 03:24:14;;;;;;;361.83;73.93;;;;;;;;;;5031298;28;20049;-70
2022/01/16 03:26:40;;;;;;;350.27;76.80;;;;;;;;;;5030441;28;20299;-70
2022/01/16 03:29:07;;;;;;;332.50;81.07;;;;;;;;;;5031264;28;20378;-70
2022/01/16 03:31:33;;;;;;;347.57;75.43;;;;;;;;;;5016954;28;20299;-70
2022/01/16 03:33:59;;;;;;;343.33;72.23;;;;;;;;;;5013640;28;20312;-71
2022/01/16 03:36:25;;;;;;;351.63;74.60;;;;;;;;;;5031460;28;20049;-70
2022/01/16 03:38:51;;;;;;;322.60;72.97;;;;;;;;;;5030524;28;20291;-70
2022/01/16 03:41:17;;;;;;;346.40;75.33;;;;;;;;;;5030011;28;20454;-70
2022/01/16 03:43:43;;;;;;;288.33;70.20;;;;;;;;;;5031620;28;20083;-71
2022/01/16 03:46:09;;;;;;;300.30;71.77;;;;;;;;;;5013469;28;20483;-70
2022/01/16 03:48:35;;;;;;;318.23;72.77;;;;;;;;;;5031227;28;20602;-71
2022/01/16 03:51:01;;;;;;;307.43;67.10;;;;;;;;;;5031358;28;20281;-71
2022/01/16 03:53:27;;;;;;;281.80;67.57;;;;;;;;;;5029392;28;20084;-71
2022/01/16 03:55:53;;;;;;;281.00;68.03;;;;;;;;;;5030526;28;20077;-71
2022/01/16 03:58:19;;;;;;;296.23;69.37;;;;;;;;;;5029669;28;20514;-71
2022/01/16 04:00:45;;;;;;;282.77;70.80;;;;;;;;;;5029695;28;20041;-71
2022/01/16 04:03:11;;;;;;;312.57;70.53;;;;;;;;;;5029964;28;20057;-71
2022/01/16 04:05:38;;;;;;;297.00;68.53;;;;;;;;;;5029646;28;20045;-71
2022/01/16 04:08:04;;;;;;;278.63;65.73;;;;;;;;;;5029421;28;20050;-71
2022/01/16 04:10:30;;;;;;;285.23;69.53;;;;;;;;;;5030804;28;20503;-71
2022/01/16 04:12:56;;;;;;;284.20;69.57;;;;;;;;;;5030893;28;20049;-71
2022/01/16 04:15:32;;;;;;;263.30;65.07;;;;;;;;;;5030680;28;20045;-71
2022/01/16 04:17:58;;;;;;;279.93;71.00;;;;;;;;;;5030210;28;20285;-71
2022/01/16 04:20:25;;;;;;;253.60;67.80;;;;;;;;;;5030553;28;20183;-71
2022/01/16 04:22:51;;;;;;;290.97;70.07;;;;;;;;;;5030347;28;20299;-71
2022/01/16 04:25:18;;;;;;;271.53;67.77;;;;;;;;;;5029438;28;20045;-71
2022/01/16 04:27:44;;;;;;;253.37;66.33;;;;;;;;;;5029274;28;20050;-71
2022/01/16 04:30:10;;;;;;;259.87;61.70;;;;;;;;;;5030582;28;20041;-70
2022/01/16 04:32:37;;;;;;;268.43;68.20;;;;;;;;;;5030187;28;20073;-71
2022/01/16 04:35:03;;;;;;;243.33;65.73;;;;;;;;;;5028863;28;20103;-70
2022/01/16 04:37:29;;;;;;;255.37;63.00;;;;;;;;;;5030839;28;20495;-70
2022/01/16 04:40:00;;;;;;;229.93;61.57;;;;;;;;;;5029175;28;20288;-70
2022/01/16 04:45:12;;;;;;;228.60;61.20;;;;;;;;;;5030268;28;20295;-70
2022/01/16 04:47:38;;;;;;;224.10;61.10;;;;;;;;;;5029031;28;20132;-71
2022/01/16 04:50:05;;;;;;;245.80;63.73;;;;;;;;;;5029993;28;20045;-71
2022/01/16 04:52:31;;;;;;;228.20;60.80;;;;;;;;;;5030248;28;20041;-71
2022/01/16 04:54:57;;;;;;;213.73;60.23;;;;;;;;;;5029435;28;20131;-70
2022/01/16 04:57:23;;;;;;;227.93;60.67;;;;;;;;;;5029970;28;20100;-70
2022/01/16 04:59:49;;;;;;;222.87;60.43;;;;;;;;;;5029029;28;20383;-71
2022/01/16 05:02:15;;;;;;;214.00;58.33;;;;;;;;;;5028559;28;20129;-71
2022/01/16 05:04:41;;;;;;;210.57;61.17;;;;;;;;;;5029836;28;20099;-70
2022/01/16 05:07:07;;;;;;;212.70;61.90;;;;;;;;;;5030040;28;20053;-70
2022/01/16 05:09:33;;;;;;;204.90;61.53;;;;;;;;;;5029628;28;20292;-71
2022/01/16 05:12:02;;;;;;;196.80;56.80;;;;;;;;;;5029612;28;20049;-71
2022/01/16 05:17:13;;;;;;;203.90;56.73;;;;;;;;;;5029610;28;20061;-71
2022/01/16 05:19:39;;;;;;;215.60;61.03;;;;;;;;;;5028332;28;20060;-71
2022/01/16 05:22:06;;;;;;;226.17;58.90;;;;;;;;;;5029530;28;20053;-70
2022/01/16 05:24:34;;;;;;;210.30;62.27;;;;;;;;;;5028146;28;20080;-71
2022/01/16 05:27:00;;;;;;;204.77;61.50;;;;;;;;;;5029159;28;20048;-70
2022/01/16 05:29:26;;;;;;;210.77;57.13;;;;;;;;;;5027647;28;20103;-70
2022/01/16 05:31:52;;;;;;;204.00;58.17;;;;;;;;;;5029234;28;20041;-71
2022/01/16 05:34:18;;;;;;;209.37;59.23;;;;;;;;;;5028941;28;20128;-70
2022/01/16 05:36:45;;;;;;;229.90;59.10;;;;;;;;;;5029013;28;20045;-70
2022/01/16 05:39:12;;;;;;;209.87;56.83;;;;;;;;;;5029467;28;20338;-70
2022/01/16 05:41:38;;;;;;;223.60;59.53;;;;;;;;;;5028044;28;20327;-71
2022/01/16 05:44:04;;;;;;;228.83;57.73;;;;;;;;;;5028986;28;20665;-71
2022/01/16 05:46:30;;;;;;;222.30;62.73;;;;;;;;;;5027957;28;20741;-70
2022/01/16 05:48:56;;;;;;;223.70;61.07;;;;;;;;;;5027951;28;20107;-70
2022/01/16 05:51:22;;;;;;;230.60;62.93;;;;;;;;;;5027937;28;20041;-70
2022/01/16 05:53:51;;;;;;;244.13;61.50;;;;;;;;;;5027359;28;20123;-70
2022/01/16 05:56:17;;;;;;;256.13;64.53;;;;;;;;;;5027658;28;20088;-71
2022/01/16 05:58:43;;;;;;;249.47;66.30;;;;;;;;;;5028200;28;20053;-71
2022/01/16 06:01:09;;;;;;;247.97;65.40;;;;;;;;;;5027299;28;20772;-71
2022/01/16 06:03:35;;;;;;;253.57;63.73;;;;;;;;;;5028541;28;20048;-71
2022/01/16 06:06:02;;;;;;;251.07;63.90;;;;;;;;;;5027505;28;20299;-71
2022/01/16 06:08:28;;;;;;;259.67;65.87;;;;;;;;;;5027548;28;20099;-70
2022/01/16 06:10:54;;;;;;;243.53;64.30;;;;;;;;;;5029049;28;20287;-70
2022/01/16 06:13:20;;;;;;;447.27;84.53;;;;;;;;;;5027825;28;20060;-71
2022/01/16 06:15:46;;;;;;;259.10;70.03;;;;;;;;;;5027444;28;20038;-70
2022/01/16 06:18:13;;;;;;;257.00;61.07;;;;;;;;;;5027108;28;20088;-71
2022/01/16 06:20:41;;;;;;;249.77;65.60;;;;;;;;;;5027912;28;20462;-71
2022/01/16 06:23:07;;;;;;;238.73;59.77;;;;;;;;;;5027493;28;20432;-70
2022/01/16 06:25:33;;;;;;;232.87;64.03;;;;;;;;;;5027334;28;20044;-70
2022/01/16 06:27:59;;;;;;;250.63;64.87;;;;;;;;;;5028631;28;20048;-71
2022/01/16 06:30:25;;;;;;;240.80;66.17;;;;;;;;;;5026101;28;20075;-71
2022/01/16 06:32:51;;;;;;;244.40;68.47;;;;;;;;;;5027385;28;20784;-70
2022/01/16 06:35:17;;;;;;;240.07;62.37;;;;;;;;;;5028059;28;20154;-70
2022/01/16 06:37:43;;;;;;;239.63;63.13;;;;;;;;;;5026719;28;20050;-70
2022/01/16 06:40:11;;;;;;;246.30;66.23;;;;;;;;;;5027774;28;20049;-70
2022/01/16 06:42:38;;;;;;;255.53;63.23;;;;;;;;;;5029000;28;20050;-71
2022/01/16 06:45:05;;;;;;;262.63;61.87;;;;;;;;;;5028422;28;20041;-71
2022/01/16 06:47:31;;;;;;;246.70;61.70;;;;;;;;;;5028928;28;20491;-71
2022/01/16 06:49:57;;;;;;;283.47;66.60;;;;;;;;;;5028688;28;20306;-71
2022/01/16 06:52:23;;;;;;;246.23;67.50;;;;;;;;;;5035065;28;20083;-71
2022/01/16 06:54:49;;;;;;;227.53;63.87;;;;;;;;;;5048579;28;20048;-71
2022/01/16 06:57:15;;;;;;;244.17;64.43;;;;;;;;;;5040494;28;20033;-71
2022/01/16 06:59:42;;;;;;;234.73;63.67;;;;;;;;;;5028857;28;20037;-71
2022/01/16 07:02:08;;;;;;;248.73;66.40;;;;;;;;;;5028226;28;20057;-71
2022/01/16 07:04:34;;;;;;;236.47;65.53;;;;;;;;;;5032613;28;20482;-71
2022/01/16 07:07:01;;;;;;;220.20;62.97;;;;;;;;;;5035464;28;20116;-71
2022/01/16 07:09:27;;;;;;;221.53;61.97;;;;;;;;;;5037686;28;20091;-71
2022/01/16 07:11:53;;;;;;;225.23;61.10;;;;;;;;;;5032839;28;20132;-71
2022/01/16 07:14:19;;;;;;;224.17;63.80;;;;;;;;;;5039793;28;20045;-71
2022/01/16 07:16:45;;;;;;;220.13;60.77;;;;;;;;;;5045595;28;20053;-70
2022/01/16 07:19:11;;;;;;;225.03;61.93;;;;;;;;;;5042058;28;20049;-71
2022/01/16 07:21:37;;;;;;;228.73;62.23;;;;;;;;;;5039793;28;20326;-71
2022/01/16 07:24:03;;;;;;;222.90;62.97;;;;;;;;;;5041724;28;20041;-71
2022/01/16 07:26:29;;;;;;;207.07;61.60;;;;;;;;;;5041299;28;20055;-71
2022/01/16 07:28:55;;;;;;;212.50;64.53;;;;;;;;;;5035748;28;20045;-70
2022/01/16 07:31:21;;;;;;;218.00;60.57;;;;;;;;;;5031390;28;20095;-70
2022/01/16 07:33:47;;;;;;;213.23;64.10;;;;;;;;;;5031319;28;20549;-71
2022/01/16 07:36:13;;;;;;;210.77;59.57;;;;;;;;;;5029211;28;20041;-71
2022/01/16 07:38:39;;;;;;;203.00;63.63;;;;;;;;;;5022616;28;20492;-71
2022/01/16 07:41:05;;;;;;;216.77;62.63;;;;;;;;;;5039181;28;20048;-71
2022/01/16 07:43:31;;;;;;;204.13;60.60;;;;;;;;;;5030399;28;20045;-71
2022/01/16 07:45:57;;;;;;;203.03;59.17;;;;;;;;;;5032512;28;20696;-71
2022/01/16 07:48:23;;;;;;;194.03;61.30;;;;;;;;;;5042687;28;20064;-71
2022/01/16 07:50:49;;;;;;;192.03;63.50;;;;;;;;;;5031962;28;20049;-71
2022/01/16 07:53:15;;;;;;;175.03;59.77;;;;;;;;;;5029675;28;20455;-70
2022/01/16 07:55:41;;;;;;;186.17;63.30;;;;;;;;;;5031477;28;20056;-71
2022/01/16 07:58:08;;;;;;;167.23;61.20;;;;;;;;;;5028617;28;20041;-71
2022/01/16 08:00:35;;;;;;;150.60;57.37;;;;;;;;;;5021007;28;20045;-71
2022/01/16 08:03:01;;;;;;;166.13;59.33;;;;;;;;;;5024326;28;20084;-71
2022/01/16 08:05:27;;;;;;;160.53;55.63;;;;;;;;;;5043727;28;20042;-71
2022/01/16 08:07:53;;;;;;;150.43;56.43;;;;;;;;;;5029477;28;20496;-71
2022/01/16 08:10:19;;;;;;;153.47;58.10;;;;;;;;;;5037567;28;20057;-71
2022/01/16 08:12:45;;;;;;;149.10;52.43;;;;;;;;;;5039634;28;20053;-71
2022/01/16 08:15:11;;;;;;;127.97;49.40;;;;;;;;;;5031619;28;20161;-72
2022/01/16 08:17:37;;;;;;;141.37;53.60;;;;;;;;;;5018511;28;20049;-71
2022/01/16 08:20:08;;;;;;;126.60;51.13;;;;;;;;;;5033473;28;20483;-71
2022/01/16 08:22:34;;;;;;;123.60;50.67;;;;;;;;;;5028380;28;20561;-71
2022/01/16 08:25:00;;;;;;;121.30;50.30;;;;;;;;;;5029843;28;20053;-70
2022/01/16 08:27:26;;;;;;;124.10;53.13;;;;;;;;;;5030037;28;20049;-70
2022/01/16 08:29:53;;;;;;;107.00;47.63;;;;;;;;;;5028761;28;20081;-70
2022/01/16 08:32:19;;;;;;;116.93;51.30;;;;;;;;;;5023754;28;20046;-70
2022/01/16 08:34:45;;;;;;;119.07;48.10;;;;;;;;;;5025459;28;20401;-69
2022/01/16 08:37:11;;;;;;;120.60;50.90;;;;;;;;;;5035978;28;20047;-70
2022/01/16 08:39:37;;;;;;;120.10;51.67;;;;;;;;;;5037672;28;20051;-69
2022/01/16 08:42:03;;;;;;;113.47;46.60;;;;;;;;;;5035017;28;20128;-70
2022/01/16 08:44:29;;;;;;;105.43;46.50;;;;;;;;;;5028525;28;20049;-69
2022/01/16 08:46:55;;;;;;;104.83;46.17;;;;;;;;;;5030009;28;20048;-69
2022/01/16 08:49:21;;;;;;;106.37;47.00;;;;;;;;;;5012359;28;21172;-69
2022/01/16 08:51:47;;;;;;;106.13;44.60;;;;;;;;;;5028538;28;20064;-69
2022/01/16 08:54:13;;;;;;;94.80;44.47;;;;;;;;;;5028043;28;20056;-69
2022/01/16 08:56:39;;;;;;;98.93;44.03;;;;;;;;;;5010495;28;20463;-69
2022/01/16 08:59:05;;;;;;;97.53;42.80;;;;;;;;;;5026329;28;20052;-69
2022/01/16 09:01:31;;;;;;;100.87;43.10;;;;;;;;;;5027574;28;20041;-69
2022/01/16 09:03:57;;;;;;;81.60;42.90;;;;;;;;;;5029905;28;20736;-69
2022/01/16 09:06:23;;;;;;;86.63;42.30;;;;;;;;;;5028868;28;20041;-69
2022/01/16 09:08:49;;;;;;;88.97;44.13;;;;;;;;;;5029261;28;20049;-70
2022/01/16 09:11:15;;;;;;;91.97;42.20;;;;;;;;;;5041369;28;20045;-70
2022/01/16 09:13:41;;;;;;;82.63;44.03;;;;;;;;;;5037175;28;20041;-69
2022/01/16 09:16:07;;;;;;;82.77;42.87;;;;;;;;;;5034480;28;20044;-70
2022/01/16 09:18:34;;;;;;;88.30;41.73;;;;;;;;;;5038650;28;20057;-70
2022/01/16 09:21:01;;;;;;;84.47;42.63;;;;;;;;;;5036541;28;20641;-70
2022/01/16 09:23:27;;;;;;;79.33;39.53;;;;;;;;;;5037210;28;20048;-70
2022/01/16 09:25:53;;;;;;;86.33;39.97;;;;;;;;;;5036077;28;20101;-70
2022/01/16 09:28:19;;;;;;;76.70;39.13;;;;;;;;;;5033745;28;20119;-70
2022/01/16 09:30:45;;;;;;;84.13;40.20;;;;;;;;;;5027660;28;20050;-70
2022/01/16 09:33:11;;;;;;;76.83;38.27;;;;;;;;;;5028296;28;20083;-70
2022/01/16 09:35:37;;;;;;;78.90;38.10;;;;;;;;;;5027805;28;20082;-70
2022/01/16 09:38:04;;;;;;;77.90;41.40;;;;;;;;;;5027095;28;20049;-69
2022/01/16 09:40:30;;;;;;;74.03;37.73;;;;;;;;;;5028155;28;20778;-70
2022/01/16 09:42:57;;;;;;;75.67;38.43;;;;;;;;;;5028599;28;20045;-70
2022/01/16 09:45:23;;;;;;;73.53;40.07;;;;;;;;;;5012048;28;20461;-70
2022/01/16 09:47:49;;;;;;;73.07;37.33;;;;;;;;;;5028270;28;20045;-70
2022/01/16 09:50:20;;;;;;;75.60;37.90;;;;;;;;;;5028340;28;20136;-70
2022/01/16 09:52:46;;;;;;;74.60;36.93;;;;;;;;;;5027520;28;20053;-70
2022/01/16 09:55:13;;;;;;;64.27;36.67;;;;;;;;;;5027548;28;20045;-70
2022/01/16 09:57:40;;;;;;;70.23;37.73;;;;;;;;;;5028558;28;20088;-69
2022/01/16 10:00:07;;;;;;;59.23;35.07;;;;;;;;;;5028872;28;20052;-70
2022/01/16 10:02:33;;;;;;;67.10;34.57;;;;;;;;;;5029493;28;20180;-70
2022/01/16 10:04:59;;;;;;;62.97;32.67;;;;;;;;;;5027647;28;20068;-70
2022/01/16 10:07:25;;;;;;;62.30;33.67;;;;;;;;;;5028565;28;20053;-70
2022/01/16 10:10:07;;;;;;;63.13;33.20;;;;;;;;;;5027990;28;20053;-69
2022/01/16 10:12:34;;;;;;;54.97;31.53;;;;;;;;;;5010444;28;20052;-69
2022/01/16 10:15:15;;;;;;;59.30;33.20;;;;;;;;;;5026866;28;20191;-69
2022/01/16 10:17:45;;;;;;;67.13;32.60;;;;;;;;;;5028610;28;20098;-70
2022/01/16 10:20:11;;;;;;;58.00;31.37;;;;;;;;;;5028938;28;20184;-69
2022/01/16 10:22:47;;;;;;;58.77;31.03;;;;;;;;;;5027400;28;20085;-69
2022/01/16 10:25:15;;;;;;;55.17;29.13;;;;;;;;;;5028807;28;20187;-69
2022/01/16 10:27:42;;;;;;;56.80;30.37;;;;;;;;;;5028254;28;20099;-69
2022/01/16 10:30:09;;;;;;;53.33;29.40;;;;;;;;;;5027300;28;20046;-69
2022/01/16 10:32:39;;;;;;;52.93;29.00;;;;;;;;;;5028262;28;20042;-70
2022/01/16 10:35:09;;;;;;;46.43;27.53;;;;;;;;;;5027979;28;20080;-70
2022/01/16 10:37:36;;;;;;;53.33;28.00;;;;;;;;;;5029028;28;20041;-69
2022/01/16 10:40:06;;;;;;;48.30;25.30;;;;;;;;;;5028362;28;20042;-70
2022/01/16 10:42:34;;;;;;;44.40;25.10;;;;;;;;;;5027892;28;20177;-70
2022/01/16 10:45:03;;;;;;;42.83;23.40;;;;;;;;;;5028647;28;20720;-70
2022/01/16 10:47:31;;;;;;;49.00;24.57;;;;;;;;;;5028216;28;20049;-70
2022/01/16 10:49:58;;;;;;;44.77;24.27;;;;;;;;;;5032693;28;20045;-70
2022/01/16 10:52:24;;;;;;;41.33;22.33;;;;;;;;;;5030758;28;20079;-70
2022/01/16 10:54:50;;;;;;;40.03;22.53;;;;;;;;;;5030953;28;20084;-70
2022/01/16 10:57:26;;;;;;;40.57;20.70;;;;;;;;;;5031085;28;20060;-70
2022/01/16 11:00:13;;;;;;;48.20;21.93;;;;;;;;;;5031017;28;20587;-70
2022/01/16 11:02:39;;;;;;;41.77;20.87;;;;;;;;;;5047499;28;20065;-71
2022/01/16 11:05:28;;;;;;;35.03;19.30;;;;;;;;;;5031321;28;20080;-70
2022/01/16 11:07:59;;;;;;;35.00;20.50;;;;;;;;;;5030992;28;20080;-70
2022/01/16 11:10:26;;;;;;;34.13;20.73;;;;;;;;;;5030347;28;20045;-70
2022/01/16 11:12:54;;;;;;;32.57;20.60;;;;;;;;;;5031304;28;20116;-70
2022/01/16 11:15:20;;;;;;;35.37;19.57;;;;;;;;;;5013906;28;20045;-70
2022/01/16 11:17:47;;;;;;;36.20;17.90;;;;;;;;;;5030433;28;20099;-70
2022/01/16 11:20:14;;;;;;;29.50;17.47;;;;;;;;;;5030655;28;20045;-70
2022/01/16 11:25:36;;;;;;;27.00;16.17;;;;;;;;;;5031497;28;20252;-71
2022/01/16 11:28:02;;;;;;;;;;;;;;;;;;5032546;28;20042;-70
2022/01/16 11:30:29;;;;;;;27.47;15.63;;;;;;;;;;5031592;28;19932;-73
2022/01/16 11:32:56;;;;;;;24.37;15.10;;;;;;;;;;5030013;28;20080;-73
2022/01/16 11:35:23;;;;;;;32.30;15.73;;;;;;;;;;5030426;28;20045;-74
2022/01/16 11:37:49;;;;;;;26.93;15.23;;;;;;;;;;5031471;28;20048;-76
2022/01/16 11:40:43;;;;;;;26.97;14.57;;;;;;;;;;5030283;28;20095;-76
2022/01/16 11:43:12;;;;;;;31.25;15.38;;;;;;;;;;5030478;28;20391;-76
2022/01/16 11:45:53;;;;;;;26.47;16.70;;;;;;;;;;5013838;28;20053;-76
2022/01/16 11:48:34;;;;;;;27.27;15.73;;;;;;;;;;5030621;28;20111;-75
2022/01/16 11:51:00;;;;;;;27.23;14.90;;;;;;;;;;5029353;28;20053;-76
2022/01/16 11:53:45;;;;;;;26.03;15.20;;;;;;;;;;5029533;28;20049;-75
2022/01/16 11:56:30;;;;;;;28.80;16.00;;;;;;;;;;5030136;28;20140;-75
2022/01/16 11:59:11;;;;;;;25.17;15.50;;;;;;;;;;5012423;28;20053;-75
2022/01/16 12:01:46;;;;;;;26.97;16.43;;;;;;;;;;5031211;28;20092;-75
2022/01/16 12:04:31;;;;;;;28.17;15.83;;;;;;;;;;5029922;28;20056;-75
2022/01/16 12:07:00;;;;;;;30.07;16.17;;;;;;;;;;5029574;28;20439;-76
2022/01/16 12:09:40;;;;;;;25.57;15.87;;;;;;;;;;5029643;28;20077;-75
2022/01/16 12:12:12;;;;;;;24.97;14.20;;;;;;;;;;5029461;28;20057;-75
2022/01/16 12:14:59;;;;;;;25.10;14.43;;;;;;;;;;5028958;28;20045;-75
2022/01/16 12:17:24;;;;;;;23.40;13.67;;;;;;;;;;5029018;28;20060;-76
2022/01/16 12:19:51;;;;;;;23.33;14.87;;;;;;;;;;5030394;28;20057;-75
2022/01/16 12:22:18;;;;;;;22.90;14.53;;;;;;;;;;5029063;28;20053;-75
2022/01/16 12:24:47;;;;;;;26.63;14.80;;;;;;;;;;5028989;28;20045;-75
2022/01/16 12:27:23;;;;;;;27.97;13.90;;;;;;;;;;5028547;28;20045;-76
2022/01/16 12:30:08;;;;;;;26.23;14.17;;;;;;;;;;5028976;28;20041;-75
2022/01/16 12:32:53;;;;;;;25.03;13.57;;;;;;;;;;5029355;28;20473;-76
2022/01/16 12:35:37;;;;;;;24.27;12.80;;;;;;;;;;5029486;28;20053;-76
2022/01/16 12:38:14;;;;;;;27.20;11.53;;;;;;;;;;5029017;28;20068;-75
2022/01/16 12:40:44;;;;;;;25.07;12.80;;;;;;;;;;5030448;28;20392;-76
2022/01/16 12:43:16;;;;;;;20.97;12.70;;;;;;;;;;5028769;28;20049;-75
2022/01/16 12:45:42;;;;;;;25.03;12.07;;;;;;;;;;5029033;28;20053;-76
2022/01/16 12:48:09;;;;;;;19.50;10.93;;;;;;;;;;5028768;28;20056;-76
2022/01/16 12:50:35;;;;;;;20.33;10.87;;;;;;;;;;5028830;28;20495;-76
2022/01/16 12:53:01;;;;;;;23.60;9.73;;;;;;;;;;5028558;28;20056;-75
2022/01/16 12:55:27;;;;;;;22.63;9.37;;;;;;;;;;5029754;28;20050;-75
2022/01/16 12:57:53;;;;;;;23.27;9.53;;;;;;;;;;5028629;28;20045;-76
2022/01/16 13:00:20;;;;;;;19.13;7.70;;;;;;;;;;5028765;28;20081;-75
2022/01/16 13:02:52;;;;;;;16.67;7.60;;;;;;;;;;5028623;28;20132;-75
2022/01/16 13:05:21;;;;;;;20.27;6.93;;;;;;;;;;5028271;28;20041;-75
2022/01/16 13:07:47;;;;;;;29.90;8.37;;;;;;;;;;5027742;28;20045;-75
2022/01/16 13:10:13;;;;;;;18.33;8.57;;;;;;;;;;5028414;28;20044;-75
2022/01/16 13:12:39;;;;;;;15.77;7.53;;;;;;;;;;5044212;28;20041;-75
2022/01/16 13:15:06;;;;;;;15.83;8.03;;;;;;;;;;5029960;28;20777;-75
2022/01/16 13:17:32;;;;;;;17.83;7.93;;;;;;;;;;5028124;28;20424;-75
2022/01/16 13:20:01;;;;;;;14.70;7.17;;;;;;;;;;5027870;28;20545;-74
2022/01/16 13:22:29;;;;;;;18.83;7.40;;;;;;;;;;5026400;28;20087;-74
2022/01/16 13:24:56;;;;;;;18.27;6.73;;;;;;;;;;5026288;28;20102;-74
2022/01/16 13:27:31;;;;;;;18.73;7.33;;;;;;;;;;5027224;28;20053;-75
2022/01/16 13:29:59;;;;;;;16.57;6.73;;;;;;;;;;5027572;28;20106;-74
2022/01/16 13:32:29;;;;;;;18.47;7.33;;;;;;;;;;5027597;28;20065;-74
2022/01/16 13:34:55;;;;;;;17.40;7.43;;;;;;;;;;5027453;28;20054;-74
2022/01/16 13:37:25;;;;;;;21.53;8.00;;;;;;;;;;5027784;28;20133;-74
2022/01/16 13:39:53;;;;;;;24.10;9.67;;;;;;;;;;5029031;28;20128;-74
2022/01/16 13:42:42;;;;;;;24.47;11.50;;;;;;;;;;5027878;28;20067;-75
2022/01/16 13:45:14;;;;;;;26.53;12.83;;;;;;;;;;5043834;28;20577;-74
2022/01/16 13:47:40;;;;;;;23.10;13.97;;;;;;;;;;5027845;28;20057;-75
2022/01/16 13:50:15;;;;;;;27.07;13.20;;;;;;;;;;5028620;28;20049;-75
2022/01/16 13:52:50;;;;;;;23.90;14.87;;;;;;;;;;5028543;28;20531;-74
2022/01/16 13:55:16;;;;;;;29.17;16.33;;;;;;;;;;5029179;28;20037;-74
2022/01/16 13:57:42;;;;;;;36.37;15.70;;;;;;;;;;5029202;28;20041;-74
2022/01/16 14:00:09;;;;;;;28.27;16.17;;;;;;;;;;5028419;28;20048;-75
2022/01/16 14:02:35;;;;;;;32.03;17.83;;;;;;;;;;5027445;28;20132;-74
2022/01/16 14:05:02;;;;;;;33.00;18.63;;;;;;;;;;5028452;28;20052;-74
2022/01/16 14:07:28;;;;;;;35.73;19.57;;;;;;;;;;5028908;28;20056;-75
2022/01/16 14:09:56;;;;;;;29.17;16.67;;;;;;;;;;5027321;28;20094;-74
2022/01/16 14:12:23;;;;;;;38.67;19.00;;;;;;;;;;5027223;28;20054;-74
2022/01/16 14:14:49;;;;;;;35.27;20.17;;;;;;;;;;5027357;28;20079;-74
2022/01/16 14:22:19;;;;;;;42.53;20.93;;;;;;;;;;5026964;28;20065;-74
2022/01/16 14:24:48;;;;;;;38.03;20.33;;;;;;;;;;5027237;28;20049;-74
2022/01/16 14:27:21;;;;;;;38.60;19.53;;;;;;;;;;5027154;28;20129;-74
2022/01/16 14:29:48;;;;;;;43.95;21.90;;;;;;;;;;5026970;28;20079;-75
2022/01/16 14:32:15;;;;;;;43.83;23.20;;;;;;;;;;5027044;28;20690;-74
2022/01/16 14:34:42;;;;;;;46.47;24.03;;;;;;;;;;5026959;28;20049;-74
2022/01/16 14:37:09;;;;;;;42.63;23.17;;;;;;;;;;5027709;28;20045;-74
2022/01/16 14:39:35;;;;;;;46.60;23.47;;;;;;;;;;5026859;28;20518;-74
2022/01/16 14:42:01;;;;;;;45.63;25.67;;;;;;;;;;5027236;28;20045;-75
2022/01/16 14:44:29;;;;;;;42.67;23.47;;;;;;;;;;5027980;28;20500;-74
2022/01/16 14:46:56;;;;;;;54.27;25.53;;;;;;;;;;5027492;28;20053;-75
2022/01/16 14:49:22;;;;;;;48.80;24.53;;;;;;;;;;5010012;28;20503;-75
2022/01/16 14:51:49;;;;;;;51.30;26.40;;;;;;;;;;5027137;28;20081;-74
2022/01/16 14:54:15;;;;;;;46.43;25.37;;;;;;;;;;5026743;28;20057;-74
2022/01/16 14:56:41;;;;;;;53.30;24.97;;;;;;;;;;5028500;28;20104;-74
2022/01/16 14:59:08;;;;;;;48.97;26.50;;;;;;;;;;5026651;28;20372;-75
2022/01/16 15:01:34;;;;;;;47.20;25.80;;;;;;;;;;5028432;28;20096;-75
2022/01/16 15:04:01;;;;;;;48.17;26.17;;;;;;;;;;5028170;28;20395;-75
2022/01/16 15:06:27;;;;;;;57.07;26.87;;;;;;;;;;5027197;28;20060;-74
2022/01/16 15:08:57;;;;;;;62.37;29.20;;;;;;;;;;5010830;28;20580;-74
2022/01/16 15:11:23;;;;;;;54.87;28.03;;;;;;;;;;5027991;28;20049;-74
2022/01/16 15:13:49;;;;;;;60.40;29.10;;;;;;;;;;5026310;28;20049;-74